Bryant, Wisconsin
Current Conditions -  °F | °C
As of 10:55 PM on Sunday 21 Dec 2014 (Local Time) from KAIG Reporting Station
Light Snow Light Snow  
Wind Chill: 22°   Ceiling: 500
Heat Index: 31°   Visibility: 3mi
Dew Point: 31°   Wind: 12mph
Humidity: 99%   Direction: 160°SSE
Pressure: 29.88"   Gusts: NA
Location:  45.21°N, 89.02°W
Report Text: KAIG 220455Z AUTO 16010KT 3SM -SN OVC005 00/00 A2988 RMK AO2 T10031005
Loading
Personal Weather Stations






























Interactive Weather Map New forecast layout! Learn more

10-Day Weather Forecast

Advertisements
Track Severe Weather on mobile